sensor_id;sensor_type;location;lat;lon;timestamp;pressure;altitude;pressure_sealevel;temperature;humidity
17593;BME280;8915;51.760;14.300;2022-12-18T00:02:03;102503.97;;;-5.60;100.00
17593;BME280;8915;51.760;14.300;2022-12-18T00:04:30;102509.19;;;-5.59;100.00
17593;BME280;8915;51.760;14.300;2022-12-18T00:06:56;102505.94;;;-5.56;100.00
17593;BME280;8915;51.760;14.300;2022-12-18T00:09:23;102504.09;;;-5.59;100.00
17593;BME280;8915;51.760;14.300;2022-12-18T00:11:49;102506.06;;;-5.55;100.00
17593;BME280;8915;51.760;14.300;2022-12-18T00:14:15;102508.31;;;-5.59;100.00
17593;BME280;8915;51.760;14.300;2022-12-18T00:16:45;102507.72;;;-5.55;100.00
17593;BME280;8915;51.760;14.300;2022-12-18T00:19:12;102507.03;;;-5.53;100.00
17593;BME280;8915;51.760;14.300;2022-12-18T00:21:38;102514.56;;;-5.54;100.00
17593;BME280;8915;51.760;14.300;2022-12-18T00:24:05;102518.00;;;-5.54;100.00
17593;BME280;8915;51.760;14.300;2022-12-18T00:26:33;102519.66;;;-5.54;100.00
17593;BME280;8915;51.760;14.300;2022-12-18T00:29:02;102521.53;;;-5.52;100.00
17593;BME280;8915;51.760;14.300;2022-12-18T00:31:30;102515.66;;;-5.51;100.00
17593;BME280;8915;51.760;14.300;2022-12-18T00:33:58;102516.66;;;-5.48;100.00
17593;BME280;8915;51.760;14.300;2022-12-18T00:36:29;102518.41;;;-5.47;100.00
17593;BME280;8915;51.760;14.300;2022-12-18T00:38:57;102521.94;;;-5.45;100.00
17593;BME280;8915;51.760;14.300;2022-12-18T00:41:24;102525.56;;;-5.42;100.00
17593;BME280;8915;51.760;14.300;2022-12-18T00:44:11;102528.44;;;-5.37;100.00
17593;BME280;8915;51.760;14.300;2022-12-18T00:46:38;102530.22;;;-5.36;100.00
17593;BME280;8915;51.760;14.300;2022-12-18T00:49:05;102532.09;;;-5.34;100.00
17593;BME280;8915;51.760;14.300;2022-12-18T00:51:32;102526.59;;;-5.40;100.00
17593;BME280;8915;51.760;14.300;2022-12-18T00:53:58;102517.88;;;-5.43;100.00
17593;BME280;8915;51.760;14.300;2022-12-18T00:56:25;102521.59;;;-5.38;100.00
17593;BME280;8915;51.760;14.300;2022-12-18T00:58:51;102518.84;;;-5.41;100.00
17593;BME280;8915;51.760;14.300;2022-12-18T01:01:18;102511.22;;;-5.41;100.00
17593;BME280;8915;51.760;14.300;2022-12-18T01:03:44;102520.72;;;-5.39;100.00
17593;BME280;8915;51.760;14.300;2022-12-18T01:06:14;102518.75;;;-5.43;100.00
17593;BME280;8915;51.760;14.300;2022-12-18T01:08:41;102516.97;;;-5.44;100.00
17593;BME280;8915;51.760;14.300;2022-12-18T01:11:12;102516.66;;;-5.48;100.00
17593;BME280;8915;51.760;14.300;2022-12-18T01:13:40;102515.97;;;-5.46;100.00
17593;BME280;8915;51.760;14.300;2022-12-18T01:16:07;102509.81;;;-5.49;100.00
17593;BME280;8915;51.760;14.300;2022-12-18T01:18:34;102519.22;;;-5.48;100.00
17593;BME280;8915;51.760;14.300;2022-12-18T01:21:05;102515.22;;;-5.45;100.00
17593;BME280;8915;51.760;14.300;2022-12-18T01:23:36;102518.63;;;-5.44;100.00
17593;BME280;8915;51.760;14.300;2022-12-18T01:26:06;102523.72;;;-5.44;100.00
17593;BME280;8915;51.760;14.300;2022-12-18T01:28:34;102522.16;;;-5.42;100.00
17593;BME280;8915;51.760;14.300;2022-12-18T01:31:15;102525.56;;;-5.42;100.00
17593;BME280;8915;51.760;14.300;2022-12-18T01:33:42;102526.47;;;-5.41;100.00
17593;BME280;8915;51.760;14.300;2022-12-18T01:36:15;102524.59;;;-5.44;100.00
17593;BME280;8915;51.760;14.300;2022-12-18T01:38:43;102524.06;;;-5.52;100.00
17593;BME280;8915;51.760;14.300;2022-12-18T01:41:10;102531.00;;;-5.49;100.00
17593;BME280;8915;51.760;14.300;2022-12-18T01:43:44;102539.91;;;-5.56;100.00
17593;BME280;8915;51.760;14.300;2022-12-18T01:46:11;102537.34;;;-5.56;100.00
17593;BME280;8915;51.760;14.300;2022-12-18T01:48:38;102533.59;;;-5.61;100.00
17593;BME280;8915;51.760;14.300;2022-12-18T01:51:06;102538.34;;;-5.65;100.00
17593;BME280;8915;51.760;14.300;2022-12-18T01:53:35;102543.09;;;-5.70;100.00
17593;BME280;8915;51.760;14.300;2022-12-18T01:56:04;102547.44;;;-5.69;100.00
17593;BME280;8915;51.760;14.300;2022-12-18T01:58:37;102549.84;;;-5.71;100.00
17593;BME280;8915;51.760;14.300;2022-12-18T02:01:06;102549.28;;;-5.66;100.00
17593;BME280;8915;51.760;14.300;2022-12-18T02:03:33;102549.09;;;-5.69;100.00
17593;BME280;8915;51.760;14.300;2022-12-18T02:06:02;102547.31;;;-5.71;100.00
17593;BME280;8915;51.760;14.300;2022-12-18T02:08:36;102545.22;;;-5.76;100.00
17593;BME280;8915;51.760;14.300;2022-12-18T02:11:11;102549.66;;;-5.85;100.00
17593;BME280;8915;51.760;14.300;2022-12-18T02:13:46;102562.56;;;-5.82;100.00
17593;BME280;8915;51.760;14.300;2022-12-18T02:16:21;102560.59;;;-5.86;100.00
17593;BME280;8915;51.760;14.300;2022-12-18T02:18:55;102570.09;;;-5.84;100.00
17593;BME280;8915;51.760;14.300;2022-12-18T02:21:31;102567.88;;;-5.79;100.00
17593;BME280;8915;51.760;14.300;2022-12-18T02:24:17;102571.09;;;-5.82;100.00
17593;BME280;8915;51.760;14.300;2022-12-18T02:26:48;102567.00;;;-5.80;100.00
17593;BME280;8915;51.760;14.300;2022-12-18T02:29:22;102564.69;;;-5.77;100.00
17593;BME280;8915;51.760;14.300;2022-12-18T02:31:54;102565.00;;;-5.72;100.00
17593;BME280;8915;51.760;14.300;2022-12-18T02:34:27;102562.91;;;-5.78;100.00
17593;BME280;8915;51.760;14.300;2022-12-18T02:36:57;102558.03;;;-5.75;100.00
17593;BME280;8915;51.760;14.300;2022-12-18T02:39:27;102559.59;;;-5.77;100.00
17593;BME280;8915;51.760;14.300;2022-12-18T02:42:01;102566.00;;;-5.82;100.00
17593;BME280;8915;51.760;14.300;2022-12-18T02:44:33;102565.22;;;-5.81;100.00
17593;BME280;8915;51.760;14.300;2022-12-18T02:46:59;102571.22;;;-5.80;100.00
17593;BME280;8915;51.760;14.300;2022-12-18T02:49:32;102567.66;;;-5.82;100.00
17593;BME280;8915;51.760;14.300;2022-12-18T02:52:18;102569.19;;;-5.84;100.00
17593;BME280;8915;51.760;14.300;2022-12-18T02:54:57;102571.50;;;-5.87;100.00
17593;BME280;8915;51.760;14.300;2022-12-18T02:57:34;102570.63;;;-5.88;100.00
17593;BME280;8915;51.760;14.300;2022-12-18T03:00:05;102568.78;;;-5.91;100.00
17593;BME280;8915;51.760;14.300;2022-12-18T03:02:38;102571.09;;;-5.94;100.00
17593;BME280;8915;51.760;14.300;2022-12-18T03:05:10;102570.97;;;-5.95;100.00
17593;BME280;8915;51.760;14.300;2022-12-18T03:07:46;102578.16;;;-5.90;100.00
17593;BME280;8915;51.760;14.300;2022-12-18T03:10:19;102568.66;;;-5.92;100.00
17593;BME280;8915;51.760;14.300;2022-12-18T03:12:54;102571.63;;;-5.86;100.00
17593;BME280;8915;51.760;14.300;2022-12-18T03:15:27;102572.94;;;-5.79;100.00
17593;BME280;8915;51.760;14.300;2022-12-18T03:18:07;102578.81;;;-5.80;100.00
17593;BME280;8915;51.760;14.300;2022-12-18T03:20:39;102581.66;;;-5.87;100.00
17593;BME280;8915;51.760;14.300;2022-12-18T03:23:13;102585.44;;;-5.82;100.00
17593;BME280;8915;51.760;14.300;2022-12-18T03:25:46;102586.53;;;-5.79;100.00
17593;BME280;8915;51.760;14.300;2022-12-18T03:28:18;102580.81;;;-5.88;100.00
17593;BME280;8915;51.760;14.300;2022-12-18T03:30:50;102580.81;;;-5.88;100.00
17593;BME280;8915;51.760;14.300;2022-12-18T03:33:21;102586.22;;;-5.83;100.00
17593;BME280;8915;51.760;14.300;2022-12-18T03:35:52;102587.09;;;-5.83;100.00
17593;BME280;8915;51.760;14.300;2022-12-18T03:38:18;102583.91;;;-5.80;100.00
17593;BME280;8915;51.760;14.300;2022-12-18T03:40:54;102577.38;;;-5.88;100.00
17593;BME280;8915;51.760;14.300;2022-12-18T03:43:32;102577.03;;;-5.93;100.00
17593;BME280;8915;51.760;14.300;2022-12-18T03:46:04;102584.00;;;-5.91;100.00
17593;BME280;8915;51.760;14.300;2022-12-18T03:48:38;102579.94;;;-5.88;100.00
17593;BME280;8915;51.760;14.300;2022-12-18T03:51:14;102582.13;;;-5.81;100.00
17593;BME280;8915;51.760;14.300;2022-12-18T03:53:47;102574.28;;;-5.84;100.00
17593;BME280;8915;51.760;14.300;2022-12-18T03:56:21;102569.09;;;-5.86;100.00
17593;BME280;8915;51.760;14.300;2022-12-18T03:58:52;102577.03;;;-5.81;100.00
17593;BME280;8915;51.760;14.300;2022-12-18T04:01:28;102591.72;;;-5.77;100.00
17593;BME280;8915;51.760;14.300;2022-12-18T04:03:58;102595.81;;;-5.79;100.00
17593;BME280;8915;51.760;14.300;2022-12-18T04:06:26;102599.16;;;-5.80;100.00
17593;BME280;8915;51.760;14.300;2022-12-18T04:08:52;102608.28;;;-5.82;100.00
17593;BME280;8915;51.760;14.300;2022-12-18T04:11:22;102610.66;;;-5.85;100.00
17593;BME280;8915;51.760;14.300;2022-12-18T04:13:48;102605.22;;;-5.90;100.00
17593;BME280;8915;51.760;14.300;2022-12-18T04:16:21;102612.72;;;-5.92;100.00
17593;BME280;8915;51.760;14.300;2022-12-18T04:18:51;102607.75;;;-5.90;100.00
17593;BME280;8915;51.760;14.300;2022-12-18T04:21:19;102602.56;;;-5.92;100.00
17593;BME280;8915;51.760;14.300;2022-12-18T04:23:47;102596.59;;;-5.92;100.00
17593;BME280;8915;51.760;14.300;2022-12-18T04:26:13;102602.78;;;-5.88;100.00
17593;BME280;8915;51.760;14.300;2022-12-18T04:28:49;102603.56;;;-5.90;100.00
17593;BME280;8915;51.760;14.300;2022-12-18T04:31:16;102606.66;;;-5.94;100.00
17593;BME280;8915;51.760;14.300;2022-12-18T04:33:44;102612.59;;;-5.93;100.00
17593;BME280;8915;51.760;14.300;2022-12-18T04:36:10;102620.13;;;-5.95;100.00
17593;BME280;8915;51.760;14.300;2022-12-18T04:38:38;102627.41;;;-5.87;100.00
17593;BME280;8915;51.760;14.300;2022-12-18T04:41:09;102625.78;;;-5.87;100.00
17593;BME280;8915;51.760;14.300;2022-12-18T04:43:36;102629.41;;;-5.83;100.00
17593;BME280;8915;51.760;14.300;2022-12-18T04:46:03;102626.19;;;-5.81;100.00
17593;BME280;8915;51.760;14.300;2022-12-18T04:48:30;102621.56;;;-5.86;100.00
17593;BME280;8915;51.760;14.300;2022-12-18T04:50:57;102625.09;;;-5.84;100.00
17593;BME280;8915;51.760;14.300;2022-12-18T04:53:24;102627.75;;;-5.83;100.00
17593;BME280;8915;51.760;14.300;2022-12-18T04:55:50;102627.75;;;-5.83;100.00
17593;BME280;8915;51.760;14.300;2022-12-18T04:58:16;102633.19;;;-5.78;100.00
17593;BME280;8915;51.760;14.300;2022-12-18T05:00:43;102618.13;;;-5.75;100.00
17593;BME280;8915;51.760;14.300;2022-12-18T05:03:09;102625.56;;;-5.78;100.00
17593;BME280;8915;51.760;14.300;2022-12-18T05:05:36;102625.75;;;-5.75;100.00
17593;BME280;8915;51.760;14.300;2022-12-18T05:08:03;102632.28;;;-5.79;100.00
17593;BME280;8915;51.760;14.300;2022-12-18T05:10:30;102632.06;;;-5.82;100.00
17593;BME280;8915;51.760;14.300;2022-12-18T05:12:56;102639.69;;;-5.82;100.00
17593;BME280;8915;51.760;14.300;2022-12-18T05:15:27;102642.25;;;-5.82;100.00
17593;BME280;8915;51.760;14.300;2022-12-18T05:17:53;102635.50;;;-5.81;100.00
17593;BME280;8915;51.760;14.300;2022-12-18T05:20:20;102637.47;;;-5.77;100.00
17593;BME280;8915;51.760;14.300;2022-12-18T05:22:46;102641.78;;;-5.76;100.00
17593;BME280;8915;51.760;14.300;2022-12-18T05:25:14;102629.09;;;-5.76;100.00
17593;BME280;8915;51.760;14.300;2022-12-18T05:27:41;102639.38;;;-5.75;100.00
17593;BME280;8915;51.760;14.300;2022-12-18T05:30:08;102632.63;;;-5.74;100.00
17593;BME280;8915;51.760;14.300;2022-12-18T05:32:35;102636.47;;;-5.79;100.00
17593;BME280;8915;51.760;14.300;2022-12-18T05:35:01;102635.03;;;-5.76;100.00
17593;BME280;8915;51.760;14.300;2022-12-18T05:37:28;102642.03;;;-5.73;100.00
17593;BME280;8915;51.760;14.300;2022-12-18T05:39:54;102647.09;;;-5.73;100.00
17593;BME280;8915;51.760;14.300;2022-12-18T05:42:22;102644.88;;;-5.68;100.00
17593;BME280;8915;51.760;14.300;2022-12-18T05:44:48;102645.66;;;-5.69;100.00
17593;BME280;8915;51.760;14.300;2022-12-18T05:47:15;102651.63;;;-5.69;100.00
17593;BME280;8915;51.760;14.300;2022-12-18T05:49:41;102661.78;;;-5.69;100.00
17593;BME280;8915;51.760;14.300;2022-12-18T05:52:08;102656.72;;;-5.69;100.00
17593;BME280;8915;51.760;14.300;2022-12-18T05:54:34;102661.56;;;-5.72;100.00
17593;BME280;8915;51.760;14.300;2022-12-18T05:57:01;102665.78;;;-5.73;100.00
17593;BME280;8915;51.760;14.300;2022-12-18T05:59:28;102667.75;;;-5.68;100.00
17593;BME280;8915;51.760;14.300;2022-12-18T06:01:55;102670.19;;;-5.70;100.00
17593;BME280;8915;51.760;14.300;2022-12-18T06:04:21;102679.59;;;-5.69;100.00
17593;BME280;8915;51.760;14.300;2022-12-18T06:06:47;102674.28;;;-5.72;100.00
17593;BME280;8915;51.760;14.300;2022-12-18T06:09:14;102676.94;;;-5.71;100.00
17593;BME280;8915;51.760;14.300;2022-12-18T06:11:40;102682.88;;;-5.70;100.00
17593;BME280;8915;51.760;14.300;2022-12-18T06:14:07;102689.31;;;-5.63;100.00
17593;BME280;8915;51.760;14.300;2022-12-18T06:16:34;102683.34;;;-5.64;100.00
17593;BME280;8915;51.760;14.300;2022-12-18T06:19:03;102691.72;;;-5.65;100.00
17593;BME280;8915;51.760;14.300;2022-12-18T06:21:31;102682.47;;;-5.64;100.00
17593;BME280;8915;51.760;14.300;2022-12-18T06:23:57;102683.22;;;-5.65;100.00
17593;BME280;8915;51.760;14.300;2022-12-18T06:26:24;102685.00;;;-5.64;100.00
17593;BME280;8915;51.760;14.300;2022-12-18T06:28:50;102689.97;;;-5.66;100.00
17593;BME280;8915;51.760;14.300;2022-12-18T06:31:17;102693.28;;;-5.67;100.00
17593;BME280;8915;51.760;14.300;2022-12-18T06:33:44;102700.34;;;-5.63;100.00
17593;BME280;8915;51.760;14.300;2022-12-18T06:36:12;102695.19;;;-5.64;100.00
17593;BME280;8915;51.760;14.300;2022-12-18T06:38:40;102693.50;;;-5.64;100.00
17593;BME280;8915;51.760;14.300;2022-12-18T06:41:07;102693.28;;;-5.67;100.00
17593;BME280;8915;51.760;14.300;2022-12-18T06:43:34;102692.28;;;-5.69;100.00
17593;BME280;8915;51.760;14.300;2022-12-18T06:46:02;102703.22;;;-5.70;100.00
17593;BME280;8915;51.760;14.300;2022-12-18T06:48:28;102718.47;;;-5.70;100.00
17593;BME280;8915;51.760;14.300;2022-12-18T06:50:56;102716.03;;;-5.68;100.00
17593;BME280;8915;51.760;14.300;2022-12-18T06:53:23;102719.03;;;-5.62;100.00
17593;BME280;8915;51.760;14.300;2022-12-18T06:55:49;102719.81;;;-5.63;100.00
17593;BME280;8915;51.760;14.300;2022-12-18T06:58:16;102715.81;;;-5.60;100.00
17593;BME280;8915;51.760;14.300;2022-12-18T07:00:43;102724.38;;;-5.59;100.00
17593;BME280;8915;51.760;14.300;2022-12-18T07:03:10;102735.06;;;-5.63;100.00
17593;BME280;8915;51.760;14.300;2022-12-18T07:05:39;102744.00;;;-5.68;100.00
17593;BME280;8915;51.760;14.300;2022-12-18T07:08:07;102740.13;;;-5.63;100.00
17593;BME280;8915;51.760;14.300;2022-12-18T07:10:40;102743.34;;;-5.66;100.00
17593;BME280;8915;51.760;14.300;2022-12-18T07:13:07;102744.13;;;-5.67;100.00
17593;BME280;8915;51.760;14.300;2022-12-18T07:15:33;102744.47;;;-5.62;100.00
17593;BME280;8915;51.760;14.300;2022-12-18T07:17:59;102751.19;;;-5.63;100.00
17593;BME280;8915;51.760;14.300;2022-12-18T07:20:26;102757.06;;;-5.64;100.00
17593;BME280;8915;51.760;14.300;2022-12-18T07:22:52;102751.97;;;-5.64;100.00
17593;BME280;8915;51.760;14.300;2022-12-18T07:25:20;102761.69;;;-5.58;100.00
17593;BME280;8915;51.760;14.300;2022-12-18T07:27:46;102755.88;;;-5.57;100.00
17593;BME280;8915;51.760;14.300;2022-12-18T07:30:13;102749.56;;;-5.62;100.00
17593;BME280;8915;51.760;14.300;2022-12-18T07:32:39;102748.44;;;-5.66;100.00
17593;BME280;8915;51.760;14.300;2022-12-18T07:35:06;102754.97;;;-5.69;100.00
17593;BME280;8915;51.760;14.300;2022-12-18T07:37:32;102771.19;;;-5.67;100.00
17593;BME280;8915;51.760;14.300;2022-12-18T07:39:59;102771.44;;;-5.64;100.00
17593;BME280;8915;51.760;14.300;2022-12-18T07:42:26;102768.09;;;-5.63;100.00
17593;BME280;8915;51.760;14.300;2022-12-18T07:45:00;102768.78;;;-5.66;100.00
17593;BME280;8915;51.760;14.300;2022-12-18T07:47:27;102765.25;;;-5.68;100.00
17593;BME280;8915;51.760;14.300;2022-12-18T07:49:53;102771.31;;;-5.66;100.00
17593;BME280;8915;51.760;14.300;2022-12-18T07:52:20;102764.38;;;-5.57;100.00
17593;BME280;8915;51.760;14.300;2022-12-18T07:54:46;102754.88;;;-5.59;100.00
17593;BME280;8915;51.760;14.300;2022-12-18T07:57:15;102764.25;;;-5.58;100.00
17593;BME280;8915;51.760;14.300;2022-12-18T07:59:43;102765.13;;;-5.58;100.00
17593;BME280;8915;51.760;14.300;2022-12-18T08:02:10;102760.81;;;-5.59;100.00
17593;BME280;8915;51.760;14.300;2022-12-18T08:04:36;102750.09;;;-5.55;100.00
17593;BME280;8915;51.760;14.300;2022-12-18T08:07:02;102746.81;;;-5.54;100.00
17593;BME280;8915;51.760;14.300;2022-12-18T08:09:29;102758.28;;;-5.59;100.00
17593;BME280;8915;51.760;14.300;2022-12-18T08:11:55;102760.50;;;-5.52;100.00
17593;BME280;8915;51.760;14.300;2022-12-18T08:14:21;102757.72;;;-5.55;100.00
17593;BME280;8915;51.760;14.300;2022-12-18T08:16:49;102755.31;;;-5.53;100.00
17593;BME280;8915;51.760;14.300;2022-12-18T08:19:15;102754.53;;;-5.52;100.00
17593;BME280;8915;51.760;14.300;2022-12-18T08:21:42;102761.06;;;-5.56;100.00
17593;BME280;8915;51.760;14.300;2022-12-18T08:24:08;102756.38;;;-5.61;100.00
17593;BME280;8915;51.760;14.300;2022-12-18T08:26:35;102762.50;;;-5.59;100.00
17593;BME280;8915;51.760;14.300;2022-12-18T08:29:01;102763.47;;;-5.69;100.00
17593;BME280;8915;51.760;14.300;2022-12-18T08:31:29;102750.06;;;-5.66;100.00
17593;BME280;8915;51.760;14.300;2022-12-18T08:33:57;102751.97;;;-5.64;100.00
17593;BME280;8915;51.760;14.300;2022-12-18T08:36:24;102749.09;;;-5.68;100.00
17593;BME280;8915;51.760;14.300;2022-12-18T08:38:51;102755.28;;;-5.77;100.00
17593;BME280;8915;51.760;14.300;2022-12-18T08:41:19;102758.94;;;-5.73;100.00
17593;BME280;8915;51.760;14.300;2022-12-18T08:43:45;102771.41;;;-5.76;100.00
17593;BME280;8915;51.760;14.300;2022-12-18T08:46:32;102771.41;;;-5.76;100.00
17593;BME280;8915;51.760;14.300;2022-12-18T08:49:01;102780.22;;;-5.83;100.00
17593;BME280;8915;51.760;14.300;2022-12-18T08:51:27;102779.78;;;-5.77;100.00
17593;BME280;8915;51.760;14.300;2022-12-18T08:53:54;102773.94;;;-5.76;100.00
17593;BME280;8915;51.760;14.300;2022-12-18T08:56:20;102777.72;;;-5.71;100.00
17593;BME280;8915;51.760;14.300;2022-12-18T08:58:47;102775.94;;;-5.72;100.00
17593;BME280;8915;51.760;14.300;2022-12-18T09:01:13;102776.72;;;-5.61;100.00
17593;BME280;8915;51.760;14.300;2022-12-18T09:03:39;102776.19;;;-5.57;100.00
17593;BME280;8915;51.760;14.300;2022-12-18T09:06:08;102782.03;;;-5.58;100.00
17593;BME280;8915;51.760;14.300;2022-12-18T09:08:34;102781.41;;;-5.56;100.00
17593;BME280;8915;51.760;14.300;2022-12-18T09:11:01;102781.28;;;-5.45;100.00
17593;BME280;8915;51.760;14.300;2022-12-18T09:13:28;102784.16;;;-5.41;100.00
17593;BME280;8915;51.760;14.300;2022-12-18T09:15:54;102776.78;;;-5.38;100.00
17593;BME280;8915;51.760;14.300;2022-12-18T09:18:22;102776.66;;;-5.39;100.00
17593;BME280;8915;51.760;14.300;2022-12-18T09:20:49;102779.44;;;-5.36;100.00
17593;BME280;8915;51.760;14.300;2022-12-18T09:23:19;102775.44;;;-5.44;100.00
17593;BME280;8915;51.760;14.300;2022-12-18T09:25:45;102779.66;;;-5.45;100.00
17593;BME280;8915;51.760;14.300;2022-12-18T09:28:16;102782.31;;;-5.43;100.00
17593;BME280;8915;51.760;14.300;2022-12-18T09:30:45;102789.59;;;-5.36;100.00
17593;BME280;8915;51.760;14.300;2022-12-18T09:33:12;102793.91;;;-5.35;100.00
17593;BME280;8915;51.760;14.300;2022-12-18T09:35:39;102799.91;;;-5.35;100.00
17593;BME280;8915;51.760;14.300;2022-12-18T09:38:06;102802.00;;;-5.29;100.00
17593;BME280;8915;51.760;14.300;2022-12-18T09:40:36;102803.53;;;-5.31;100.00
17593;BME280;8915;51.760;14.300;2022-12-18T09:43:06;102807.97;;;-5.28;100.00
17593;BME280;8915;51.760;14.300;2022-12-18T09:45:39;102814.81;;;-5.27;100.00
17593;BME280;8915;51.760;14.300;2022-12-18T09:48:10;102817.38;;;-5.27;100.00
17593;BME280;8915;51.760;14.300;2022-12-18T09:50:40;102817.91;;;-5.32;100.00
17593;BME280;8915;51.760;14.300;2022-12-18T09:53:11;102825.41;;;-5.33;100.00
17593;BME280;8915;51.760;14.300;2022-12-18T09:55:42;102832.41;;;-5.30;100.00
17593;BME280;8915;51.760;14.300;2022-12-18T09:58:16;102839.91;;;-5.32;100.00
17593;BME280;8915;51.760;14.300;2022-12-18T10:00:44;102831.97;;;-5.25;100.00
17593;BME280;8915;51.760;14.300;2022-12-18T10:03:13;102828.84;;;-5.21;100.00
17593;BME280;8915;51.760;14.300;2022-12-18T10:05:45;102815.50;;;-5.18;100.00
17593;BME280;8915;51.760;14.300;2022-12-18T10:08:17;102822.69;;;-5.13;100.00
17593;BME280;8915;51.760;14.300;2022-12-18T10:10:49;102822.03;;;-5.10;100.00
17593;BME280;8915;51.760;14.300;2022-12-18T10:13:22;102813.06;;;-5.17;100.00
17593;BME280;8915;51.760;14.300;2022-12-18T10:16:09;102807.31;;;-5.26;100.00
17593;BME280;8915;51.760;14.300;2022-12-18T10:18:59;102800.47;;;-5.15;100.00
17593;BME280;8915;51.760;14.300;2022-12-18T10:21:32;102798.69;;;-5.16;100.00
17593;BME280;8915;51.760;14.300;2022-12-18T10:24:08;102790.28;;;-5.15;100.00
17593;BME280;8915;51.760;14.300;2022-12-18T10:26:40;102777.09;;;-5.21;100.00
17593;BME280;8915;51.760;14.300;2022-12-18T10:29:09;102773.47;;;-5.13;100.00
17593;BME280;8915;51.760;14.300;2022-12-18T10:31:38;102763.84;;;-5.05;100.00
17593;BME280;8915;51.760;14.300;2022-12-18T10:34:04;102764.28;;;-4.99;100.00
17593;BME280;8915;51.760;14.300;2022-12-18T10:36:30;102760.28;;;-5.07;100.00
17593;BME280;8915;51.760;14.300;2022-12-18T10:39:14;102758.97;;;-5.02;100.00
17593;BME280;8915;51.760;14.300;2022-12-18T10:41:42;102757.53;;;-5.10;100.00
17593;BME280;8915;51.760;14.300;2022-12-18T10:44:16;102754.09;;;-5.11;100.00
17593;BME280;8915;51.760;14.300;2022-12-18T10:46:44;102759.41;;;-5.20;100.00
17593;BME280;8915;51.760;14.300;2022-12-18T10:49:19;102757.31;;;-5.25;100.00
17593;BME280;8915;51.760;14.300;2022-12-18T10:51:48;102770.13;;;-5.36;100.00
17593;BME280;8915;51.760;14.300;2022-12-18T10:54:16;102761.75;;;-5.35;100.00
17593;BME280;8915;51.760;14.300;2022-12-18T10:56:44;102754.88;;;-5.36;100.00
17593;BME280;8915;51.760;14.300;2022-12-18T10:59:13;102751.34;;;-5.26;100.00
17593;BME280;8915;51.760;14.300;2022-12-18T11:01:49;102753.56;;;-5.19;100.00
17593;BME280;8915;51.760;14.300;2022-12-18T11:04:19;102752.47;;;-5.22;100.00
17593;BME280;8915;51.760;14.300;2022-12-18T11:06:54;102748.56;;;-5.17;100.00
17593;BME280;8915;51.760;14.300;2022-12-18T11:09:23;102744.81;;;-5.10;100.00
17593;BME280;8915;51.760;14.300;2022-12-18T11:11:52;102742.38;;;-5.09;100.00
17593;BME280;8915;51.760;14.300;2022-12-18T11:14:22;102730.44;;;-5.10;100.00
17593;BME280;8915;51.760;14.300;2022-12-18T11:16:50;102735.19;;;-5.15;100.00
17593;BME280;8915;51.760;14.300;2022-12-18T11:19:31;102727.09;;;-5.09;100.00
17593;BME280;8915;51.760;14.300;2022-12-18T11:21:58;102726.47;;;-5.06;100.00
17593;BME280;8915;51.760;14.300;2022-12-18T11:24:29;102714.72;;;-5.04;100.00
17593;BME280;8915;51.760;14.300;2022-12-18T11:26:59;102712.50;;;-5.00;100.00
17593;BME280;8915;51.760;14.300;2022-12-18T11:29:32;102702.53;;;-4.97;100.00
17593;BME280;8915;51.760;14.300;2022-12-18T11:32:32;102707.50;;;-4.98;100.00
17593;BME280;8915;51.760;14.300;2022-12-18T11:35:04;102712.84;;;-5.07;100.00
17593;BME280;8915;51.760;14.300;2022-12-18T11:37:34;102706.31;;;-5.03;100.00
17593;BME280;8915;51.760;14.300;2022-12-18T11:40:07;102709.75;;;-5.03;100.00
17593;BME280;8915;51.760;14.300;2022-12-18T11:42:44;102711.63;;;-5.00;100.00
17593;BME280;8915;51.760;14.300;2022-12-18T11:45:24;102705.00;;;-5.10;100.00
17593;BME280;8915;51.760;14.300;2022-12-18T11:47:56;102707.66;;;-5.20;100.00
17593;BME280;8915;51.760;14.300;2022-12-18T11:50:26;102712.31;;;-5.15;100.00
17593;BME280;8915;51.760;14.300;2022-12-18T11:52:55;102711.31;;;-5.17;100.00
17593;BME280;8915;51.760;14.300;2022-12-18T11:55:28;102713.75;;;-5.06;100.00
17593;BME280;8915;51.760;14.300;2022-12-18T11:58:05;102710.50;;;-5.04;100.00
17593;BME280;8915;51.760;14.300;2022-12-18T12:00:39;102709.88;;;-5.13;100.00
17593;BME280;8915;51.760;14.300;2022-12-18T12:03:22;102725.66;;;-5.17;100.00
17593;BME280;8915;51.760;14.300;2022-12-18T12:06:01;102720.16;;;-5.11;100.00
17593;BME280;8915;51.760;14.300;2022-12-18T12:08:48;102708.44;;;-5.09;100.00
17593;BME280;8915;51.760;14.300;2022-12-18T12:11:22;102707.97;;;-5.04;100.00
17593;BME280;8915;51.760;14.300;2022-12-18T12:14:05;102712.06;;;-5.06;100.00
17593;BME280;8915;51.760;14.300;2022-12-18T12:16:37;102717.03;;;-5.07;100.00
17593;BME280;8915;51.760;14.300;2022-12-18T12:19:21;102722.13;;;-5.07;100.00
17593;BME280;8915;51.760;14.300;2022-12-18T12:21:58;102724.00;;;-5.05;100.00
17593;BME280;8915;51.760;14.300;2022-12-18T12:24:35;102734.22;;;-5.17;100.00
17593;BME280;8915;51.760;14.300;2022-12-18T12:27:11;102737.84;;;-5.13;100.00
17593;BME280;8915;51.760;14.300;2022-12-18T12:29:53;102729.44;;;-5.00;100.00
17593;BME280;8915;51.760;14.300;2022-12-18T12:32:37;102735.63;;;-4.97;100.00
17593;BME280;8915;51.760;14.300;2022-12-18T12:35:18;102730.06;;;-4.91;100.00
17593;BME280;8915;51.760;14.300;2022-12-18T12:37:54;102716.00;;;-4.86;100.00
17593;BME280;8915;51.760;14.300;2022-12-18T12:40:28;102717.09;;;-4.82;100.00
17593;BME280;8915;51.760;14.300;2022-12-18T12:42:58;102718.09;;;-4.80;100.00
17593;BME280;8915;51.760;14.300;2022-12-18T12:45:45;102714.78;;;-4.79;100.00
17593;BME280;8915;51.760;14.300;2022-12-18T12:48:17;102720.09;;;-4.76;100.00
17593;BME280;8915;51.760;14.300;2022-12-18T12:50:45;102726.53;;;-4.81;100.00
17593;BME280;8915;51.760;14.300;2022-12-18T12:53:20;102729.72;;;-4.84;100.00
17593;BME280;8915;51.760;14.300;2022-12-18T12:55:48;102721.09;;;-4.86;100.00